Time;durP1;ratioP1;P1;durP2;ratioP2;P2;SDS_P1;SDS_P2;PMS_P1;PMS_P2;Temp;Humidity;BMP_temperature;BMP_pressure;BME280_temperature;BME280_humidity;BME280_pressure;Samples;Min_cycle;Max_cycle;Signal;HPM_P1;HPM_P2
2020/12/18 00:01:26;;;;;;;16.90;9.27;;;3.70;99.90;;;;;;4999766;28;20463;-66
2020/12/18 00:03:52;;;;;;;17.17;9.77;;;3.90;99.90;;;;;;4996132;28;20180;-66
2020/12/18 00:06:19;;;;;;;17.10;9.40;;;3.70;99.90;;;;;;5005460;28;20438;-65
2020/12/18 00:08:45;;;;;;;13.37;7.50;;;3.70;99.90;;;;;;5005367;28;20424;-66
2020/12/18 00:11:18;;;;;;;9.67;6.23;;;3.60;99.90;;;;;;5002416;28;20431;-66
2020/12/18 00:13:43;;;;;;;10.47;7.00;;;3.60;99.90;;;;;;5000733;28;20999;-66
2020/12/18 00:16:09;;;;;;;8.43;5.97;;;3.70;99.90;;;;;;5005900;28;20420;-66
2020/12/18 00:18:34;;;;;;;10.97;6.33;;;3.60;99.90;;;;;;4999995;28;20624;-66
2020/12/18 00:21:00;;;;;;;11.33;6.53;;;3.70;99.90;;;;;;5003783;28;20200;-65
2020/12/18 00:23:26;;;;;;;8.60;6.17;;;3.60;99.90;;;;;;5002454;28;20172;-66
2020/12/18 00:25:52;;;;;;;9.30;5.67;;;3.60;99.90;;;;;;4998147;28;20184;-65
2020/12/18 00:28:17;;;;;;;7.60;5.00;;;3.60;99.90;;;;;;5001738;28;20180;-65
2020/12/18 00:30:43;;;;;;;5.93;4.13;;;3.50;99.90;;;;;;5001284;28;20436;-66
2020/12/18 00:33:09;;;;;;;6.20;4.50;;;3.50;99.90;;;;;;5001273;28;20180;-66
2020/12/18 00:35:35;;;;;;;4.63;4.10;;;3.50;99.90;;;;;;4998562;28;20221;-66
2020/12/18 00:38:01;;;;;;;6.63;4.60;;;3.50;99.90;;;;;;4996178;28;20431;-66
2020/12/18 00:40:26;;;;;;;7.47;4.77;;;3.50;99.90;;;;;;4998416;28;20228;-66
2020/12/18 00:42:52;;;;;;;6.00;3.90;;;3.50;99.90;;;;;;5002502;28;20642;-66
2020/12/18 00:45:17;;;;;;;4.33;3.63;;;3.70;99.90;;;;;;5005472;28;20259;-66
2020/12/18 00:47:43;;;;;;;9.00;4.40;;;3.80;99.90;;;;;;5005677;28;20172;-66
2020/12/18 00:50:09;;;;;;;9.63;6.57;;;4.00;99.90;;;;;;4997701;28;20211;-65
2020/12/18 00:52:34;;;;;;;12.00;7.73;;;4.00;99.90;;;;;;5000292;28;20639;-66
2020/12/18 00:55:00;;;;;;;7.20;5.07;;;4.00;99.90;;;;;;4999443;28;20420;-66
2020/12/18 00:57:26;;;;;;;3.93;3.50;;;4.00;99.90;;;;;;5005169;28;20177;-66
2020/12/18 00:59:52;;;;;;;5.23;3.87;;;3.80;99.90;;;;;;5005189;28;20687;-66
2020/12/18 01:02:17;;;;;;;5.13;4.27;;;3.60;99.90;;;;;;4993682;28;20252;-66
2020/12/18 01:04:43;;;;;;;6.07;4.60;;;3.50;99.90;;;;;;5003021;28;20224;-65
2020/12/18 01:07:08;;;;;;;5.90;4.63;;;3.40;99.90;;;;;;5001416;28;20264;-66
2020/12/18 01:09:34;;;;;;;6.13;4.23;;;3.30;99.90;;;;;;5003220;28;20176;-65
2020/12/18 01:12:00;;;;;;;7.27;4.90;;;3.20;99.90;;;;;;5004645;28;20718;-66
2020/12/18 01:14:26;;;;;;;5.73;4.53;;;3.10;99.90;;;;;;5003239;28;20180;-66
2020/12/18 01:16:55;;;;;;;5.10;4.07;;;3.10;99.90;;;;;;4998921;28;20188;-66
2020/12/18 01:19:22;;;;;;;6.07;4.33;;;3.10;99.90;;;;;;5005704;28;20519;-66
2020/12/18 01:21:48;;;;;;;4.33;3.53;;;3.10;99.90;;;;;;5009648;28;20454;-66
2020/12/18 01:24:14;;;;;;;5.30;4.10;;;3.10;99.90;;;;;;5008770;28;20420;-66
2020/12/18 01:26:42;;;;;;;5.10;4.17;;;3.20;99.90;;;;;;5007898;28;20423;-66
2020/12/18 01:29:07;;;;;;;6.77;3.80;;;3.20;99.90;;;;;;5006938;28;20200;-65
2020/12/18 01:31:33;;;;;;;5.93;4.63;;;3.20;99.90;;;;;;5010621;28;20458;-65
2020/12/18 01:33:58;;;;;;;6.10;4.33;;;3.40;99.90;;;;;;4998131;28;20192;-65
2020/12/18 01:36:24;;;;;;;6.30;3.80;;;3.50;99.90;;;;;;5007733;28;20569;-66
2020/12/18 01:38:50;;;;;;;4.90;4.27;;;3.40;99.90;;;;;;5002697;28;20184;-65
2020/12/18 01:41:16;;;;;;;5.27;4.20;;;3.50;99.90;;;;;;5005328;28;20205;-65
2020/12/18 01:43:41;;;;;;;5.60;3.57;;;3.60;99.90;;;;;;5009003;28;20172;-66
2020/12/18 01:46:11;;;;;;;8.47;4.30;;;3.60;99.90;;;;;;5008982;28;20173;-66
2020/12/18 01:48:40;;;;;;;6.13;4.53;;;3.50;99.90;;;;;;4997384;28;20183;-66
2020/12/18 01:51:08;;;;;;;5.37;4.00;;;3.50;99.90;;;;;;5003401;28;20419;-66
2020/12/18 01:53:34;;;;;;;4.60;3.83;;;3.40;99.90;;;;;;5013185;28;20417;-66
2020/12/18 01:56:01;;;;;;;7.57;4.20;;;3.30;99.90;;;;;;5006297;28;20515;-66
2020/12/18 01:58:28;;;;;;;9.27;5.27;;;3.30;99.90;;;;;;5009112;28;20415;-65
2020/12/18 02:00:54;;;;;;;6.20;4.27;;;3.20;99.90;;;;;;4988352;28;20462;-66
2020/12/18 02:03:20;;;;;;;5.90;4.30;;;3.30;99.90;;;;;;5006303;28;20846;-66
2020/12/18 02:05:45;;;;;;;5.63;3.60;;;3.40;99.90;;;;;;5006034;28;20456;-66
2020/12/18 02:08:11;;;;;;;5.87;3.80;;;3.30;99.90;;;;;;5007607;28;20512;-66
2020/12/18 02:10:37;;;;;;;7.17;3.90;;;3.30;99.90;;;;;;4997821;28;20189;-66
2020/12/18 02:13:02;;;;;;;5.97;3.40;;;3.40;99.90;;;;;;5004991;28;20183;-66
2020/12/18 02:15:29;;;;;;;4.60;3.50;;;3.30;99.90;;;;;;5008936;28;20181;-66
2020/12/18 02:17:55;;;;;;;4.97;4.07;;;3.30;99.90;;;;;;4997131;28;20187;-66
2020/12/18 02:20:20;;;;;;;6.30;3.63;;;3.30;99.90;;;;;;5002269;28;20420;-66
2020/12/18 02:22:47;;;;;;;3.83;3.30;;;3.30;99.90;;;;;;5007229;28;20337;-66
2020/12/18 02:25:21;;;;;;;3.80;3.30;;;3.30;99.90;;;;;;5001840;28;20231;-66
2020/12/18 02:27:47;;;;;;;5.17;3.63;;;3.20;99.90;;;;;;5003652;28;20419;-65
2020/12/18 02:30:15;;;;;;;4.20;3.60;;;3.40;99.90;;;;;;5008357;28;20511;-66
2020/12/18 02:32:40;;;;;;;4.83;3.63;;;3.30;99.90;;;;;;5001856;28;20586;-66
2020/12/18 02:35:13;;;;;;;5.03;4.00;;;3.30;99.90;;;;;;5005031;28;20416;-66
2020/12/18 02:37:46;;;;;;;4.07;3.40;;;3.40;99.90;;;;;;5020252;28;20180;-66
2020/12/18 02:40:11;;;;;;;3.17;2.87;;;3.40;99.90;;;;;;5022063;28;20813;-66
2020/12/18 02:42:37;;;;;;;5.60;4.03;;;3.50;99.90;;;;;;5023029;28;20418;-65
2020/12/18 02:45:03;;;;;;;3.93;3.53;;;3.50;99.90;;;;;;5020377;28;20189;-65
2020/12/18 02:47:29;;;;;;;3.90;2.97;;;3.50;99.90;;;;;;5016680;28;20172;-64
2020/12/18 02:49:54;;;;;;;5.57;3.83;;;3.40;99.90;;;;;;5022953;28;20420;-65
2020/12/18 02:52:20;;;;;;;3.70;3.23;;;3.40;99.90;;;;;;5020609;28;20173;-66
2020/12/18 02:54:46;;;;;;;5.43;3.63;;;3.40;99.90;;;;;;5023253;28;20230;-66
2020/12/18 02:57:11;;;;;;;4.53;3.67;;;3.40;99.90;;;;;;5025045;28;20212;-65
2020/12/18 02:59:37;;;;;;;5.97;3.63;;;3.40;99.90;;;;;;5011139;28;20192;-65
2020/12/18 03:02:02;;;;;;;5.60;4.10;;;3.40;99.90;;;;;;5021378;28;20664;-66
2020/12/18 03:04:28;;;;;;;4.57;3.63;;;3.30;99.90;;;;;;5020222;28;20196;-66
2020/12/18 03:06:53;;;;;;;5.10;3.83;;;3.30;99.90;;;;;;5021822;28;20314;-66
2020/12/18 03:09:19;;;;;;;6.27;3.47;;;3.40;99.90;;;;;;5009396;28;20180;-66
2020/12/18 03:11:45;;;;;;;5.13;3.50;;;3.40;99.90;;;;;;5020450;28;20185;-66
2020/12/18 03:14:10;;;;;;;3.23;2.93;;;3.40;99.90;;;;;;5021327;28;20538;-65
2020/12/18 03:16:37;;;;;;;6.07;3.23;;;3.30;99.90;;;;;;5023966;28;20188;-65
2020/12/18 03:19:03;;;;;;;7.07;3.67;;;3.30;99.90;;;;;;5028893;28;20603;-66
2020/12/18 03:21:29;;;;;;;4.03;2.90;;;3.30;99.90;;;;;;5023100;28;20553;-66
2020/12/18 03:23:54;;;;;;;3.77;3.23;;;3.30;99.90;;;;;;5018721;28;20204;-65
2020/12/18 03:26:21;;;;;;;3.80;3.30;;;3.30;99.90;;;;;;5017020;28;20533;-65
2020/12/18 03:28:47;;;;;;;3.87;3.17;;;3.30;99.90;;;;;;5020257;28;20323;-66
2020/12/18 03:31:13;;;;;;;3.40;2.90;;;3.30;99.90;;;;;;5023498;28;20518;-65
2020/12/18 03:33:39;;;;;;;3.10;2.80;;;3.30;99.90;;;;;;5022229;28;20543;-65
2020/12/18 03:36:04;;;;;;;5.07;3.63;;;3.30;99.90;;;;;;5016834;28;20461;-66
2020/12/18 03:38:30;;;;;;;4.30;3.00;;;3.30;99.90;;;;;;5012673;28;20661;-66
2020/12/18 03:40:56;;;;;;;4.00;3.37;;;3.30;99.90;;;;;;5012585;28;20291;-65
2020/12/18 03:43:21;;;;;;;6.33;3.93;;;3.30;99.90;;;;;;5012697;28;21410;-66
2020/12/18 03:45:47;;;;;;;6.17;4.73;;;3.30;99.90;;;;;;5012464;28;20180;-66
2020/12/18 03:48:12;;;;;;;9.10;4.40;;;3.20;99.90;;;;;;5012597;28;20176;-65
2020/12/18 03:50:38;;;;;;;6.73;3.97;;;3.10;99.90;;;;;;5012416;28;20195;-65
2020/12/18 03:53:03;;;;;;;5.80;4.27;;;3.10;99.90;;;;;;5012496;28;20267;-65
2020/12/18 03:55:29;;;;;;;8.77;5.23;;;3.10;99.90;;;;;;5012607;28;20188;-65
2020/12/18 03:57:54;;;;;;;6.97;5.40;;;3.10;99.90;;;;;;5012104;28;20203;-65
2020/12/18 04:00:20;;;;;;;6.77;4.83;;;3.10;99.90;;;;;;5012624;28;21361;-65
2020/12/18 04:02:46;;;;;;;5.30;4.63;;;3.10;99.90;;;;;;5011959;28;20179;-65
2020/12/18 04:05:11;;;;;;;6.43;4.53;;;3.10;99.90;;;;;;5012360;28;20180;-65
2020/12/18 04:07:37;;;;;;;4.93;4.10;;;3.10;99.90;;;;;;5012250;28;20216;-65
2020/12/18 04:10:04;;;;;;;5.57;3.97;;;3.10;99.90;;;;;;5012287;28;20619;-66
2020/12/18 04:12:29;;;;;;;5.97;4.40;;;3.10;99.90;;;;;;5012161;28;20188;-65
2020/12/18 04:14:55;;;;;;;12.17;4.47;;;3.10;99.90;;;;;;5012059;28;20424;-66
2020/12/18 04:17:21;;;;;;;5.30;4.10;;;3.00;99.90;;;;;;5011852;28;20540;-65
2020/12/18 04:19:46;;;;;;;5.70;3.93;;;3.00;99.90;;;;;;5012485;28;20227;-65
2020/12/18 04:22:12;;;;;;;4.93;3.63;;;3.00;99.90;;;;;;5011748;28;20206;-66
2020/12/18 04:24:38;;;;;;;4.40;3.77;;;3.00;99.90;;;;;;5012001;28;20705;-66
2020/12/18 04:27:04;;;;;;;5.53;4.00;;;2.90;99.90;;;;;;5011780;28;20168;-66
2020/12/18 04:29:29;;;;;;;4.37;3.50;;;3.00;99.90;;;;;;5012020;28;20177;-66
2020/12/18 04:31:55;;;;;;;4.23;3.17;;;2.90;99.90;;;;;;5012213;28;20180;-65
2020/12/18 04:34:20;;;;;;;3.97;3.00;;;3.00;99.90;;;;;;5011710;28;20188;-65
2020/12/18 04:36:49;;;;;;;4.20;3.30;;;2.90;99.90;;;;;;5013332;28;20248;-66
2020/12/18 04:39:14;;;;;;;3.60;2.87;;;2.90;99.90;;;;;;5011483;28;20215;-65
2020/12/18 04:41:40;;;;;;;3.10;2.80;;;2.80;99.90;;;;;;5011747;28;20494;-66
2020/12/18 04:44:06;;;;;;;5.83;2.77;;;2.90;99.90;;;;;;5011686;28;20176;-65
2020/12/18 04:46:35;;;;;;;6.83;2.73;;;2.90;99.90;;;;;;5011953;28;20550;-66
2020/12/18 04:49:01;;;;;;;2.67;2.47;;;2.80;99.90;;;;;;5011731;28;20180;-66
2020/12/18 04:51:27;;;;;;;2.77;2.37;;;2.80;99.90;;;;;;5011066;28;20426;-66
2020/12/18 04:53:55;;;;;;;7.03;2.30;;;2.90;99.90;;;;;;4994008;28;20180;-66
2020/12/18 04:56:22;;;;;;;3.20;2.33;;;2.90;99.90;;;;;;5011461;28;20180;-65
2020/12/18 04:58:52;;;;;;;4.07;2.40;;;2.90;99.90;;;;;;5011926;28;20419;-66
2020/12/18 05:01:23;;;;;;;3.20;2.80;;;3.00;99.90;;;;;;5011286;28;20533;-66
2020/12/18 05:03:50;;;;;;;4.23;2.47;;;3.00;99.90;;;;;;5011429;28;20407;-65
2020/12/18 05:06:16;;;;;;;3.07;2.43;;;3.00;99.90;;;;;;5011255;28;20427;-65
2020/12/18 05:08:43;;;;;;;3.03;2.73;;;;;;;;;;5010630;28;20423;-66
2020/12/18 05:11:15;;;;;;;7.67;3.40;;;2.90;99.90;;;;;;5011138;28;20415;-66
2020/12/18 05:13:42;;;;;;;6.23;3.27;;;2.80;99.90;;;;;;5010938;28;20448;-65
2020/12/18 05:16:07;;;;;;;5.10;3.47;;;2.90;99.90;;;;;;5011209;28;20458;-66
2020/12/18 05:18:33;;;;;;;5.43;3.13;;;2.90;99.90;;;;;;5011051;28;20505;-65
2020/12/18 05:20:59;;;;;;;3.70;2.67;;;2.90;99.90;;;;;;5010887;28;20196;-65
2020/12/18 05:23:25;;;;;;;4.80;3.80;;;2.80;99.90;;;;;;5011108;28;20272;-67
2020/12/18 05:25:51;;;;;;;3.77;2.97;;;2.80;99.90;;;;;;5010860;28;20527;-65
2020/12/18 05:28:21;;;;;;;5.70;3.60;;;2.80;99.90;;;;;;5011079;28;20214;-66
2020/12/18 05:30:48;;;;;;;4.13;3.30;;;2.80;99.90;;;;;;5010918;28;20208;-66
2020/12/18 05:33:15;;;;;;;3.63;3.17;;;2.70;99.90;;;;;;5011419;28;20449;-66
2020/12/18 05:35:41;;;;;;;4.33;3.37;;;2.70;99.90;;;;;;5015243;28;20491;-66
2020/12/18 05:38:07;;;;;;;5.77;2.67;;;2.70;99.90;;;;;;5012081;28;20431;-65
2020/12/18 05:40:33;;;;;;;5.17;3.23;;;2.50;99.90;;;;;;5015075;28;20418;-65
2020/12/18 05:43:06;;;;;;;8.73;3.27;;;2.40;99.90;;;;;;5022655;28;20855;-65
2020/12/18 05:45:31;;;;;;;6.03;3.17;;;2.40;99.90;;;;;;5031146;28;20176;-65
2020/12/18 05:47:59;;;;;;;6.77;3.00;;;2.30;99.90;;;;;;5030956;28;20509;-65
2020/12/18 05:50:31;;;;;;;4.60;3.00;;;2.30;99.90;;;;;;5015858;28;20234;-64
2020/12/18 05:52:59;;;;;;;4.63;2.83;;;2.20;99.90;;;;;;5030575;28;20415;-64
2020/12/18 05:55:25;;;;;;;6.93;2.90;;;2.20;99.90;;;;;;5019868;28;20433;-64
2020/12/18 05:57:52;;;;;;;7.97;2.57;;;2.20;99.90;;;;;;5030534;28;20410;-66
2020/12/18 06:00:19;;;;;;;8.33;3.00;;;2.30;99.90;;;;;;5030347;28;20418;-65
2020/12/18 06:02:48;;;;;;;5.40;3.43;;;2.50;99.90;;;;;;5030848;28;20964;-66
2020/12/18 06:05:15;;;;;;;4.97;2.60;;;2.50;99.90;;;;;;5033583;28;20513;-65
2020/12/18 06:07:40;;;;;;;2.73;2.13;;;2.60;99.90;;;;;;5033950;28;20562;-65
2020/12/18 06:10:06;;;;;;;2.80;2.43;;;2.50;99.90;;;;;;5024150;28;20968;-66
2020/12/18 06:12:33;;;;;;;3.07;2.53;;;2.60;99.90;;;;;;5014219;28;20300;-67
2020/12/18 06:15:00;;;;;;;3.57;2.30;;;2.70;99.90;;;;;;5013757;28;20192;-65
2020/12/18 06:17:32;;;;;;;4.10;2.37;;;2.70;99.90;;;;;;5013794;28;20419;-65
2020/12/18 06:19:58;;;;;;;4.33;3.17;;;2.70;99.90;;;;;;5014077;28;20428;-66
2020/12/18 06:22:24;;;;;;;10.07;3.20;;;2.60;99.90;;;;;;5013776;28;20785;-66
2020/12/18 06:24:49;;;;;;;7.07;3.03;;;2.60;99.90;;;;;;5013922;28;20181;-66
2020/12/18 06:27:17;;;;;;;4.03;2.90;;;2.60;99.90;;;;;;5013489;28;20184;-65
2020/12/18 06:29:43;;;;;;;3.83;3.37;;;2.60;99.90;;;;;;5013609;28;20279;-65
2020/12/18 06:32:29;;;;;;;4.80;2.97;;;2.60;99.90;;;;;;5013389;28;20446;-66
2020/12/18 06:35:26;;;;;;;7.90;2.80;;;2.40;99.90;;;;;;5013576;28;20497;-65
2020/12/18 06:37:52;;;;;;;4.43;2.63;;;2.40;99.90;;;;;;5013581;28;20817;-66
2020/12/18 06:40:32;;;;;;;4.00;3.13;;;2.30;99.90;;;;;;5013433;28;20411;-66
2020/12/18 06:42:59;;;;;;;7.17;3.20;;;2.30;99.90;;;;;;5013451;28;20393;-66
2020/12/18 06:45:25;;;;;;;4.13;3.10;;;2.30;99.90;;;;;;5013345;28;20424;-65
2020/12/18 06:47:52;;;;;;;4.23;3.30;;;2.30;99.90;;;;;;5013068;28;20925;-64
2020/12/18 06:50:18;;;;;;;5.20;3.00;;;2.40;99.90;;;;;;5012979;28;20750;-66
2020/12/18 06:52:50;;;;;;;3.70;3.33;;;2.30;99.90;;;;;;4995459;28;20423;-64
2020/12/18 06:55:25;;;;;;;8.73;3.70;;;2.40;99.90;;;;;;4995800;28;20431;-66
2020/12/18 06:58:06;;;;;;;6.17;3.80;;;2.50;99.90;;;;;;5013322;28;20426;-65
2020/12/18 07:00:38;;;;;;;6.77;3.93;;;2.50;99.90;;;;;;5013049;28;20925;-67
2020/12/18 07:03:04;;;;;;;8.27;3.20;;;2.50;99.90;;;;;;5013241;28;20473;-67
2020/12/18 07:05:34;;;;;;;8.17;3.50;;;2.50;99.90;;;;;;5012800;28;20902;-66
2020/12/18 07:08:10;;;;;;;4.47;3.13;;;2.50;99.90;;;;;;5013137;28;20423;-65
2020/12/18 07:10:43;;;;;;;5.17;3.53;;;2.50;99.90;;;;;;5013028;28;20510;-65
2020/12/18 07:13:18;;;;;;;4.57;3.50;;;2.60;99.90;;;;;;5012731;28;20862;-65
2020/12/18 07:15:48;;;;;;;5.33;3.87;;;2.70;99.90;;;;;;5012689;28;20430;-66
2020/12/18 07:18:26;;;;;;;7.93;3.47;;;2.60;99.90;;;;;;5013389;28;20464;-65
2020/12/18 07:20:55;;;;;;;7.40;4.13;;;2.60;99.90;;;;;;5012639;28;20451;-65
2020/12/18 07:23:22;;;;;;;6.67;4.03;;;2.60;99.90;;;;;;5012723;28;20419;-66
2020/12/18 07:25:50;;;;;;;8.17;3.90;;;2.70;99.90;;;;;;5012488;28;20940;-65
2020/12/18 07:28:16;;;;;;;10.37;4.60;;;2.70;99.90;;;;;;5012638;28;20499;-65
2020/12/18 07:30:50;;;;;;;14.17;4.70;;;2.70;99.90;;;;;;5012608;28;20428;-66
2020/12/18 07:33:19;;;;;;;10.60;4.07;;;2.80;99.90;;;;;;5012165;28;20892;-66
2020/12/18 07:35:47;;;;;;;9.07;3.80;;;2.90;99.90;;;;;;5014170;28;20497;-65
2020/12/18 07:38:14;;;;;;;9.33;4.47;;;2.90;99.90;;;;;;5032053;28;20415;-65
2020/12/18 07:40:40;;;;;;;5.33;4.00;;;2.80;99.90;;;;;;5031413;28;20959;-65
2020/12/18 07:43:08;;;;;;;8.83;4.27;;;2.80;99.90;;;;;;5010362;28;20518;-65
2020/12/18 07:45:37;;;;;;;11.50;4.53;;;2.90;99.90;;;;;;5011394;28;20407;-65
2020/12/18 07:48:12;;;;;;;9.30;5.20;;;2.90;99.90;;;;;;5011973;28;20988;-65
2020/12/18 07:50:38;;;;;;;7.27;5.23;;;2.80;99.90;;;;;;5012351;28;20454;-64
2020/12/18 07:53:11;;;;;;;9.20;5.20;;;2.80;99.90;;;;;;5012075;28;20415;-65
2020/12/18 07:55:37;;;;;;;9.13;5.10;;;2.80;99.90;;;;;;5025729;28;20767;-65
2020/12/18 07:58:04;;;;;;;7.63;5.77;;;2.70;99.90;;;;;;5031659;28;20928;-65
2020/12/18 08:00:30;;;;;;;12.23;5.33;;;2.70;99.90;;;;;;5031917;28;20768;-64
2020/12/18 08:02:57;;;;;;;8.20;4.87;;;2.60;99.90;;;;;;5024406;28;20422;-65
2020/12/18 08:05:23;;;;;;;22.87;5.40;;;2.50;99.90;;;;;;5011867;28;20426;-65
2020/12/18 08:07:50;;;;;;;8.53;4.77;;;2.40;99.90;;;;;;5011960;28;20412;-65
2020/12/18 08:10:17;;;;;;;35.80;6.27;;;2.40;99.90;;;;;;5011788;28;20434;-66
2020/12/18 08:12:47;;;;;;;17.60;4.93;;;2.40;99.90;;;;;;5012759;28;20430;-66
2020/12/18 08:15:14;;;;;;;10.13;4.70;;;2.40;99.90;;;;;;5031706;28;20414;-66
2020/12/18 08:17:41;;;;;;;29.50;6.30;;;2.40;99.90;;;;;;5024876;28;20481;-66
2020/12/18 08:20:11;;;;;;;24.27;6.03;;;2.40;99.90;;;;;;5011803;28;20499;-65
2020/12/18 08:22:41;;;;;;;17.93;4.63;;;2.40;99.90;;;;;;5011289;28;20455;-65
2020/12/18 08:25:08;;;;;;;12.07;4.70;;;2.30;99.90;;;;;;5029442;28;20505;-65
2020/12/18 08:27:44;;;;;;;7.40;4.50;;;2.40;99.90;;;;;;5022941;28;20426;-65
2020/12/18 08:30:11;;;;;;;7.47;5.37;;;2.40;99.90;;;;;;5011641;28;20419;-66
2020/12/18 08:32:38;;;;;;;11.90;5.90;;;2.40;99.90;;;;;;5011489;28;20415;-65
2020/12/18 08:35:06;;;;;;;17.53;5.57;;;2.40;99.90;;;;;;5012431;28;20415;-65
2020/12/18 08:37:32;;;;;;;8.17;4.17;;;2.50;99.90;;;;;;5032724;28;20462;-66
2020/12/18 08:39:58;;;;;;;23.03;4.43;;;2.70;99.90;;;;;;5031276;28;20931;-65
2020/12/18 08:42:24;;;;;;;17.80;3.67;;;2.70;99.90;;;;;;5031328;28;20665;-66
2020/12/18 08:44:49;;;;;;;19.70;4.10;;;2.70;99.90;;;;;;5010195;28;20259;-65
2020/12/18 08:47:23;;;;;;;15.47;3.93;;;2.70;99.90;;;;;;5026447;28;20501;-65
2020/12/18 08:49:51;;;;;;;6.27;4.20;;;2.80;99.90;;;;;;5030953;28;20545;-66
2020/12/18 08:52:25;;;;;;;10.03;3.80;;;2.90;99.90;;;;;;5031086;28;20417;-66
2020/12/18 08:55:01;;;;;;;30.20;4.53;;;2.90;99.90;;;;;;5030691;28;20449;-65
2020/12/18 08:57:30;;;;;;;19.93;4.47;;;2.90;99.90;;;;;;5030885;28;20429;-66
2020/12/18 08:59:57;;;;;;;9.77;4.10;;;2.90;99.90;;;;;;5019476;28;20505;-65
2020/12/18 09:02:24;;;;;;;6.27;4.00;;;3.00;99.90;;;;;;5011264;28;20553;-65
2020/12/18 09:05:24;;;;;;;6.70;4.53;;;3.00;99.90;;;;;;5013061;28;20414;-65
2020/12/18 09:07:53;;;;;;;17.13;5.57;;;3.10;99.90;;;;;;5030851;28;20759;-65
2020/12/18 09:10:41;;;;;;;20.77;6.03;;;3.20;99.90;;;;;;5018819;28;20498;-65
2020/12/18 09:13:17;;;;;;;20.20;6.70;;;3.20;99.90;;;;;;5011225;28;20415;-65
2020/12/18 09:15:45;;;;;;;14.77;6.23;;;3.20;99.90;;;;;;5011069;28;20547;-65
2020/12/18 09:18:21;;;;;;;12.23;5.57;;;3.30;99.90;;;;;;5011239;28;20502;-67
2020/12/18 09:20:46;;;;;;;17.80;5.47;;;3.50;99.90;;;;;;5017854;28;20448;-65
2020/12/18 09:23:17;;;;;;;12.37;5.80;;;3.50;99.90;;;;;;5030867;28;20422;-66
2020/12/18 09:25:47;;;;;;;20.33;5.40;;;3.50;99.90;;;;;;5030763;28;20240;-66
2020/12/18 09:28:18;;;;;;;14.07;5.10;;;3.50;99.90;;;;;;5030441;28;20497;-66
2020/12/18 09:30:48;;;;;;;10.90;4.77;;;3.60;99.90;;;;;;5030622;28;20430;-65
2020/12/18 09:33:26;;;;;;;16.00;4.80;;;3.70;99.90;;;;;;5030290;28;20509;-66
2020/12/18 09:36:16;;;;;;;19.07;4.63;;;3.70;99.90;;;;;;5032555;28;20417;-65
2020/12/18 09:38:52;;;;;;;19.37;5.17;;;3.70;99.90;;;;;;5031575;28;20421;-65
2020/12/18 09:41:22;;;;;;;16.13;5.17;;;3.70;99.90;;;;;;5034039;28;20519;-66
2020/12/18 09:43:49;;;;;;;15.43;5.90;;;3.80;99.90;;;;;;5034162;28;20418;-65
2020/12/18 09:46:18;;;;;;;23.10;5.27;;;3.80;99.90;;;;;;5034384;28;20420;-67
2020/12/18 09:48:44;;;;;;;16.77;5.60;;;3.90;99.90;;;;;;5034238;28;20422;-65
2020/12/18 09:51:11;;;;;;;28.03;6.07;;;3.90;99.90;;;;;;5033966;28;20423;-67
2020/12/18 09:53:36;;;;;;;64.77;6.33;;;3.90;99.90;;;;;;5016339;28;20431;-67
2020/12/18 09:56:02;;;;;;;20.87;5.03;;;3.90;99.90;;;;;;5034295;28;20485;-66
2020/12/18 09:58:28;;;;;;;19.00;5.30;;;4.00;99.90;;;;;;5033405;28;20184;-66
2020/12/18 10:00:54;;;;;;;55.23;6.27;;;4.00;99.90;;;;;;5034280;28;20468;-66
2020/12/18 10:03:20;;;;;;;8.73;5.40;;;4.00;99.90;;;;;;5033837;28;20195;-66
2020/12/18 10:05:46;;;;;;;17.83;5.43;;;4.20;99.90;;;;;;5033815;28;20233;-65
2020/12/18 10:08:12;;;;;;;9.00;4.97;;;4.20;99.90;;;;;;5033877;28;20273;-67
2020/12/18 10:10:38;;;;;;;10.87;5.17;;;4.40;99.90;;;;;;5033849;28;20442;-66
2020/12/18 10:13:03;;;;;;;22.37;5.07;;;4.50;99.90;;;;;;5033666;28;20175;-67
2020/12/18 10:15:29;;;;;;;25.90;4.90;;;4.50;99.90;;;;;;5033293;28;20183;-66
2020/12/18 10:17:55;;;;;;;10.23;5.47;;;4.50;99.90;;;;;;5033739;28;20294;-66
2020/12/18 10:20:21;;;;;;;11.17;5.80;;;4.60;99.90;;;;;;5033032;28;20211;-66
2020/12/18 10:22:46;;;;;;;15.40;5.60;;;4.60;99.90;;;;;;5033430;28;20200;-66
2020/12/18 10:25:12;;;;;;;9.67;5.77;;;4.70;99.90;;;;;;5015951;28;20172;-66
2020/12/18 10:27:38;;;;;;;16.57;8.20;;;4.90;99.90;;;;;;5033171;28;20574;-67
2020/12/18 10:30:05;;;;;;;15.03;8.30;;;4.90;99.90;;;;;;5033414;28;20183;-67
2020/12/18 10:32:32;;;;;;;12.00;7.40;;;5.10;99.90;;;;;;5012082;28;20188;-66
2020/12/18 10:35:05;;;;;;;15.03;6.40;;;5.30;99.90;;;;;;5013589;28;20424;-65
2020/12/18 10:37:31;;;;;;;17.57;5.80;;;5.40;99.90;;;;;;5015091;28;20458;-66
2020/12/18 10:39:57;;;;;;;13.60;5.07;;;5.50;99.90;;;;;;5013500;28;20423;-66
2020/12/18 10:42:23;;;;;;;16.07;5.63;;;5.60;99.90;;;;;;5013252;28;20786;-67
2020/12/18 10:44:49;;;;;;;16.17;5.70;;;5.50;99.90;;;;;;5011783;28;20704;-66
2020/12/18 10:47:14;;;;;;;14.73;5.43;;;5.60;99.90;;;;;;4995826;28;20175;-66
2020/12/18 10:49:40;;;;;;;6.90;4.97;;;5.70;99.90;;;;;;5012576;28;20700;-67
2020/12/18 10:52:06;;;;;;;9.33;4.50;;;5.70;99.90;;;;;;5015951;28;20195;-66
2020/12/18 10:54:31;;;;;;;8.70;5.10;;;5.60;99.90;;;;;;5013175;28;20247;-67
2020/12/18 10:56:57;;;;;;;21.57;6.27;;;5.60;99.90;;;;;;5013079;28;20208;-66
2020/12/18 10:59:26;;;;;;;9.60;5.90;;;5.60;99.90;;;;;;5025512;28;20518;-68
2020/12/18 11:01:53;;;;;;;9.40;6.63;;;5.50;99.90;;;;;;5032460;28;20191;-67
2020/12/18 11:04:19;;;;;;;10.37;7.17;;;5.60;99.90;;;;;;5032926;28;20928;-67
2020/12/18 11:06:45;;;;;;;12.07;7.73;;;5.70;99.90;;;;;;5032656;28;20442;-67
2020/12/18 11:09:11;;;;;;;15.10;7.97;;;5.80;99.90;;;;;;5032421;28;20188;-68
2020/12/18 11:11:36;;;;;;;13.70;7.50;;;5.90;99.90;;;;;;5032624;28;20437;-67
2020/12/18 11:14:02;;;;;;;8.70;5.93;;;6.00;99.90;;;;;;5032344;28;20179;-66
2020/12/18 11:16:27;;;;;;;18.90;5.73;;;6.00;99.90;;;;;;5032785;28;20661;-66
2020/12/18 11:18:53;;;;;;;14.23;6.20;;;6.10;99.90;;;;;;5032309;28;20180;-67
2020/12/18 11:21:19;;;;;;;8.17;5.43;;;6.10;99.90;;;;;;5032135;28;20203;-66
2020/12/18 11:23:44;;;;;;;22.50;6.83;;;5.90;99.90;;;;;;5032414;28;20650;-65
2020/12/18 11:26:11;;;;;;;23.07;7.53;;;5.80;99.90;;;;;;5014084;28;20839;-66
2020/12/18 11:28:38;;;;;;;20.27;8.60;;;5.60;99.90;;;;;;5012512;28;20177;-66
2020/12/18 11:31:04;;;;;;;16.93;8.73;;;5.70;99.90;;;;;;5012386;28;20922;-67
2020/12/18 11:33:29;;;;;;;14.33;8.37;;;5.70;99.90;;;;;;5011164;28;20431;-66
2020/12/18 11:35:55;;;;;;;34.73;8.00;;;5.80;99.90;;;;;;5014073;28;20187;-67
2020/12/18 11:38:21;;;;;;;29.40;8.30;;;5.80;99.90;;;;;;5011831;28;20184;-66
2020/12/18 11:40:47;;;;;;;27.60;8.90;;;5.90;99.90;;;;;;5012096;28;20199;-67
2020/12/18 11:43:13;;;;;;;27.60;8.63;;;6.00;99.90;;;;;;5012130;28;20185;-66
2020/12/18 11:45:38;;;;;;;20.83;7.53;;;5.90;99.90;;;;;;5012042;28;20498;-66
2020/12/18 11:48:04;;;;;;;20.07;8.63;;;5.90;99.90;;;;;;5012234;28;20202;-66
2020/12/18 11:50:30;;;;;;;21.50;9.10;;;5.90;99.90;;;;;;5011917;28;20180;-66
2020/12/18 11:52:57;;;;;;;34.33;8.57;;;5.90;99.90;;;;;;5012120;28;20251;-66
2020/12/18 11:55:23;;;;;;;21.03;9.00;;;5.90;99.90;;;;;;5011886;28;20561;-66
2020/12/18 11:57:49;;;;;;;25.53;10.30;;;5.90;99.90;;;;;;5011726;28;20921;-67
2020/12/18 12:00:16;;;;;;;34.43;8.17;;;5.90;99.90;;;;;;5010958;28;20415;-65
2020/12/18 12:02:41;;;;;;;17.00;8.73;;;5.70;99.90;;;;;;5011283;28;20196;-66
2020/12/18 12:05:07;;;;;;;14.47;9.07;;;5.70;99.90;;;;;;5011764;28;20426;-65
2020/12/18 12:07:32;;;;;;;23.87;8.80;;;5.80;99.90;;;;;;5011632;28;20287;-67
2020/12/18 12:09:58;;;;;;;34.23;8.67;;;5.90;99.90;;;;;;5011766;28;20185;-66
2020/12/18 12:12:24;;;;;;;48.27;9.03;;;5.90;99.90;;;;;;5017382;28;20184;-67
2020/12/18 12:14:50;;;;;;;17.93;8.60;;;5.90;99.90;;;;;;5031129;28;20656;-67
2020/12/18 12:17:16;;;;;;;16.37;9.13;;;5.90;99.90;;;;;;5031134;28;20180;-67
2020/12/18 12:19:42;;;;;;;15.30;9.60;;;6.00;99.90;;;;;;5031212;28;20267;-66
2020/12/18 12:22:07;;;;;;;29.07;9.33;;;6.00;99.90;;;;;;5031151;28;20537;-65
2020/12/18 12:24:42;;;;;;;39.90;9.80;;;6.10;99.90;;;;;;5030991;28;20182;-66
2020/12/18 12:27:10;;;;;;;17.93;9.00;;;6.20;99.90;;;;;;5031154;28;20243;-65
2020/12/18 12:29:36;;;;;;;22.90;9.50;;;6.30;99.90;;;;;;5031137;28;20414;-65
2020/12/18 12:32:02;;;;;;;29.03;9.67;;;6.30;99.90;;;;;;5030993;28;20415;-65
2020/12/18 12:34:27;;;;;;;27.37;10.27;;;6.40;99.90;;;;;;5031098;28;20183;-65
2020/12/18 12:36:59;;;;;;;20.97;9.17;;;6.40;99.90;;;;;;5032711;28;20581;-67
2020/12/18 12:39:25;;;;;;;29.50;10.17;;;6.40;99.90;;;;;;5031167;28;20176;-66
2020/12/18 12:41:51;;;;;;;31.43;11.07;;;6.40;99.90;;;;;;5030563;28;20458;-65
2020/12/18 12:44:17;;;;;;;43.90;12.03;;;6.30;99.90;;;;;;5030937;28;20769;-67
2020/12/18 12:46:43;;;;;;;19.37;11.17;;;6.20;99.90;;;;;;5030921;28;20225;-67
2020/12/18 12:49:09;;;;;;;21.57;10.70;;;6.20;99.90;;;;;;5011062;28;20176;-65
2020/12/18 12:51:34;;;;;;;27.63;11.20;;;6.20;99.90;;;;;;5011195;28;20173;-67
2020/12/18 12:54:00;;;;;;;27.90;11.17;;;6.30;99.90;;;;;;5011052;28;20176;-64